createdAt,value
2018-12-18T00:00:14.364Z,10.27
2018-12-18T00:02:40.327Z,10.16
2018-12-18T00:05:06.274Z,10.21
2018-12-18T00:07:32.248Z,9.92
2018-12-18T00:09:58.201Z,9.65
2018-12-18T00:12:24.208Z,9.69
2018-12-18T00:14:50.156Z,9.94
2018-12-18T00:17:16.107Z,10.08
2018-12-18T00:19:42.072Z,10.13
2018-12-18T00:22:08.063Z,10.16
2018-12-18T00:24:34.066Z,10.14
2018-12-18T00:27:00.048Z,9.94
2018-12-18T00:29:26.040Z,9.94
2018-12-18T00:31:52.001Z,10.01
2018-12-18T00:34:17.971Z,10.30
2018-12-18T00:36:43.949Z,10.36
2018-12-18T00:39:09.931Z,10.25
2018-12-18T00:41:35.879Z,10.35
2018-12-18T00:44:01.848Z,10.34
2018-12-18T00:46:27.801Z,10.48
2018-12-18T00:48:53.783Z,10.44
2018-12-18T00:51:19.761Z,10.38
2018-12-18T00:53:45.752Z,10.28
2018-12-18T00:56:11.726Z,10.34
2018-12-18T00:58:37.680Z,10.58
2018-12-18T01:01:03.900Z,10.52
2018-12-18T01:03:29.863Z,10.57
2018-12-18T01:05:55.844Z,10.59
2018-12-18T01:08:21.802Z,10.51
2018-12-18T01:10:47.783Z,10.56
2018-12-18T01:18:21.296Z,10.80
2018-12-18T01:20:47.279Z,10.86
2018-12-18T01:23:13.231Z,10.70
2018-12-18T01:25:39.192Z,10.47
2018-12-18T01:28:05.137Z,10.43
2018-12-18T01:30:31.106Z,10.46
2018-12-18T01:32:57.055Z,10.38
2018-12-18T01:35:23.012Z,10.56
2018-12-18T01:37:49.004Z,10.58
2018-12-18T01:40:14.969Z,10.43
2018-12-18T01:42:40.953Z,10.35
2018-12-18T01:45:06.922Z,10.59
2018-12-18T01:47:32.886Z,10.89
2018-12-18T01:49:58.863Z,10.50
2018-12-18T01:52:24.829Z,10.58
2018-12-18T01:54:50.795Z,10.72
2018-12-18T01:57:16.754Z,10.77
2018-12-18T01:59:42.692Z,10.56
2018-12-18T02:02:08.689Z,10.54
2018-12-18T02:04:34.635Z,10.49
2018-12-18T02:07:00.594Z,10.59
2018-12-18T02:09:26.555Z,10.63
2018-12-18T02:11:52.534Z,10.86
2018-12-18T02:14:18.514Z,10.72
2018-12-18T02:16:44.480Z,10.71
2018-12-18T02:19:10.439Z,10.90
2018-12-18T02:21:36.761Z,10.81
2018-12-18T02:24:02.737Z,10.83
2018-12-18T02:26:28.714Z,11.07
2018-12-18T02:28:54.688Z,11.09
2018-12-18T02:31:20.648Z,11.07
2018-12-18T02:33:46.608Z,11.10
2018-12-18T02:36:12.688Z,11.23
2018-12-18T02:38:38.660Z,11.38
2018-12-18T02:41:04.646Z,11.27
2018-12-18T02:43:30.606Z,11.38
2018-12-18T02:45:56.553Z,11.53
2018-12-18T02:48:22.522Z,11.60
2018-12-18T02:50:48.474Z,11.61
2018-12-18T02:53:14.460Z,11.61
2018-12-18T02:55:40.424Z,11.71
2018-12-18T02:58:06.403Z,11.74
2018-12-18T03:00:32.400Z,11.76
2018-12-18T03:02:58.347Z,11.52
2018-12-18T03:05:24.304Z,11.59
2018-12-18T03:07:50.256Z,11.59
2018-12-18T03:10:16.217Z,11.62
2018-12-18T03:12:42.209Z,11.68
2018-12-18T03:15:08.156Z,11.70
2018-12-18T03:17:34.184Z,11.68
2018-12-18T03:20:00.157Z,11.56
2018-12-18T03:22:26.142Z,11.65
2018-12-18T03:24:52.093Z,11.77
2018-12-18T03:27:18.129Z,11.76
2018-12-18T03:29:44.131Z,11.77
2018-12-18T03:32:10.073Z,11.79
2018-12-18T03:34:36.071Z,11.73
2018-12-18T03:37:02.099Z,11.67
2018-12-18T03:39:28.057Z,11.65
2018-12-18T03:41:54.047Z,11.67
2018-12-18T03:44:20.008Z,11.69
2018-12-18T03:46:45.979Z,11.67
2018-12-18T03:49:11.929Z,11.68
2018-12-18T03:51:37.905Z,11.71
2018-12-18T03:54:03.873Z,11.79
2018-12-18T03:56:29.836Z,11.78
2018-12-18T03:58:55.796Z,11.84
2018-12-18T04:01:21.771Z,11.79
2018-12-18T04:03:47.747Z,11.77
2018-12-18T04:06:13.717Z,11.73
2018-12-18T04:08:39.674Z,11.78
2018-12-18T04:11:05.641Z,11.67
2018-12-18T04:13:31.609Z,11.66
2018-12-18T04:15:57.589Z,11.71
2018-12-18T04:18:23.544Z,11.76
2018-12-18T04:20:49.550Z,11.77
2018-12-18T04:23:15.522Z,11.81
2018-12-18T04:25:41.508Z,11.83
2018-12-18T04:28:11.802Z,11.72
2018-12-18T04:30:42.008Z,11.88
2018-12-18T04:33:07.974Z,11.85
2018-12-18T04:35:33.951Z,11.84
2018-12-18T04:37:59.933Z,11.85
2018-12-18T04:40:25.909Z,11.90
2018-12-18T04:42:51.888Z,11.88
2018-12-18T04:45:17.841Z,11.86
2018-12-18T04:47:44.892Z,11.87
2018-12-18T04:50:10.847Z,11.88
2018-12-18T04:52:36.816Z,11.92
2018-12-18T04:55:02.775Z,11.91
2018-12-18T04:57:28.766Z,11.92
2018-12-18T04:59:55.996Z,11.90
2018-12-18T05:02:21.988Z,11.90
2018-12-18T05:04:50.548Z,12.04
2018-12-18T05:07:15.956Z,11.85
2018-12-18T05:09:41.916Z,11.91
2018-12-18T05:12:07.881Z,11.88
2018-12-18T05:14:33.913Z,11.88
2018-12-18T05:16:59.951Z,11.81
2018-12-18T05:19:25.995Z,11.76
2018-12-18T05:21:51.973Z,11.73
2018-12-18T05:24:18.023Z,11.77
2018-12-18T05:26:44.019Z,11.69
2018-12-18T05:29:09.960Z,11.54
2018-12-18T05:31:35.936Z,11.76
2018-12-18T05:34:01.880Z,11.61
2018-12-18T05:36:27.883Z,11.64
2018-12-18T05:38:53.865Z,11.62
2018-12-18T05:41:19.820Z,11.46
2018-12-18T05:43:45.759Z,11.50
2018-12-18T05:46:11.804Z,11.00
2018-12-18T05:48:37.783Z,11.26
2018-12-18T05:51:04.329Z,11.29
2018-12-18T05:53:32.053Z,11.04
2018-12-18T05:55:58.267Z,11.06
2018-12-18T05:58:24.235Z,10.64
2018-12-18T06:00:50.200Z,10.80
2018-12-18T06:03:16.146Z,10.57
2018-12-18T06:05:42.096Z,10.79
2018-12-18T06:08:09.122Z,11.15
2018-12-18T06:10:35.066Z,10.97
2018-12-18T06:13:01.185Z,11.10
2018-12-18T06:15:27.425Z,11.22
2018-12-18T06:17:53.487Z,11.44
2018-12-18T06:20:19.635Z,11.70
2018-12-18T06:22:45.760Z,11.85
2018-12-18T06:25:11.704Z,12.11
2018-12-18T06:27:37.682Z,12.06
2018-12-18T06:30:03.632Z,12.10
2018-12-18T06:32:29.622Z,12.09
2018-12-18T06:34:55.583Z,12.29
2018-12-18T06:37:21.558Z,12.35
2018-12-18T06:39:47.563Z,12.28
2018-12-18T06:42:13.553Z,12.03
2018-12-18T06:44:39.546Z,11.94
2018-12-18T06:47:05.494Z,12.06
2018-12-18T06:49:31.459Z,12.06
2018-12-18T06:51:57.422Z,12.18
2018-12-18T06:54:23.387Z,12.14
2018-12-18T06:56:49.435Z,12.16
2018-12-18T06:59:15.391Z,12.11
2018-12-18T07:01:41.340Z,12.10
2018-12-18T07:04:07.296Z,12.16
2018-12-18T07:06:33.263Z,12.02
2018-12-18T07:08:59.304Z,11.99
2018-12-18T07:11:25.275Z,12.01
2018-12-18T07:13:51.231Z,12.00
2018-12-18T07:16:17.182Z,11.97
2018-12-18T07:18:43.163Z,12.08
2018-12-18T07:21:09.143Z,12.20
2018-12-18T07:23:35.114Z,12.22
2018-12-18T07:26:01.075Z,12.22
2018-12-18T07:28:27.061Z,12.29
2018-12-18T07:30:53.017Z,12.23
2018-12-18T07:33:18.999Z,12.18
2018-12-18T07:35:45.003Z,12.27
2018-12-18T07:38:10.985Z,12.04
2018-12-18T07:40:36.933Z,12.14
2018-12-18T07:43:02.920Z,12.16
2018-12-18T07:45:28.871Z,12.12
2018-12-18T07:47:54.841Z,12.14
2018-12-18T07:50:20.801Z,12.16
2018-12-18T07:52:46.788Z,12.34
2018-12-18T07:55:12.745Z,12.38
2018-12-18T07:57:38.724Z,12.41
2018-12-18T08:00:04.697Z,12.49
2018-12-18T08:02:30.658Z,12.46
2018-12-18T08:04:56.623Z,12.35
2018-12-18T08:07:22.602Z,12.33
2018-12-18T08:09:48.680Z,12.48
2018-12-18T08:12:14.642Z,12.53
2018-12-18T08:14:40.579Z,12.41
2018-12-18T08:17:06.531Z,12.40
2018-12-18T08:19:32.579Z,12.35
2018-12-18T08:21:58.539Z,12.39
2018-12-18T08:24:24.596Z,12.35
2018-12-18T08:26:50.606Z,12.39
2018-12-18T08:29:16.603Z,12.36
2018-12-18T08:31:42.587Z,12.26
2018-12-18T08:34:08.554Z,12.25
2018-12-18T08:36:34.507Z,12.22
2018-12-18T08:39:01.570Z,12.24
2018-12-18T08:41:27.572Z,12.23
2018-12-18T08:43:53.556Z,12.23
2018-12-18T08:46:19.516Z,12.25
2018-12-18T08:48:45.540Z,12.23
2018-12-18T08:51:11.492Z,12.07
2018-12-18T08:53:37.474Z,12.22
2018-12-18T08:56:03.455Z,12.25
2018-12-18T08:58:29.433Z,12.12
2018-12-18T09:00:55.405Z,12.12
2018-12-18T09:03:21.409Z,12.23
2018-12-18T09:05:47.396Z,12.28
2018-12-18T09:08:13.340Z,12.28
2018-12-18T09:10:40.013Z,12.41
2018-12-18T09:13:06.179Z,12.34
2018-12-18T09:15:32.156Z,11.98
2018-12-18T09:17:58.293Z,12.12
2018-12-18T09:20:24.267Z,11.94
2018-12-18T09:22:50.244Z,12.22
2018-12-18T09:25:16.203Z,12.47
2018-12-18T09:27:42.199Z,12.40
2018-12-18T09:30:08.208Z,12.31
2018-12-18T09:32:34.152Z,12.35
2018-12-18T09:35:00.108Z,12.50
2018-12-18T09:37:26.075Z,12.50
2018-12-18T09:39:52.040Z,12.48
2018-12-18T09:42:17.988Z,12.54
2018-12-18T09:44:43.987Z,12.48
2018-12-18T09:47:09.960Z,12.42
2018-12-18T09:49:35.987Z,12.47
2018-12-18T09:52:01.980Z,12.52
2018-12-18T09:54:28.089Z,12.56
2018-12-18T09:56:54.064Z,12.50
2018-12-18T09:59:20.043Z,12.61
2018-12-18T10:01:46.009Z,12.63
2018-12-18T10:04:12.239Z,12.63
2018-12-18T10:06:38.181Z,12.63
2018-12-18T10:09:09.623Z,12.62
2018-12-18T10:11:32.111Z,12.82
2018-12-18T10:13:58.069Z,12.81
2018-12-18T10:16:24.022Z,12.80
2018-12-18T10:18:50.010Z,12.70
2018-12-18T10:21:16.081Z,12.72
2018-12-18T10:23:42.177Z,12.66
2018-12-18T10:26:08.178Z,12.72
2018-12-18T10:28:34.148Z,12.87
2018-12-18T10:31:00.090Z,12.82
2018-12-18T10:33:26.165Z,12.94
2018-12-18T10:35:52.170Z,12.99
2018-12-18T10:38:18.204Z,12.90
2018-12-18T10:40:44.153Z,13.05
2018-12-18T10:43:10.117Z,13.06
2018-12-18T10:45:36.093Z,12.94
2018-12-18T10:48:02.099Z,12.97
2018-12-18T10:50:28.041Z,13.09
2018-12-18T10:52:53.985Z,13.13
2018-12-18T10:55:19.951Z,13.06
2018-12-18T10:57:45.958Z,13.05
2018-12-18T11:00:11.944Z,13.08
2018-12-18T11:02:37.950Z,13.11
2018-12-18T11:05:04.016Z,13.01
2018-12-18T11:07:29.990Z,13.20
2018-12-18T11:09:55.979Z,13.15
2018-12-18T11:12:21.977Z,13.18
2018-12-18T11:14:47.935Z,13.06
2018-12-18T11:17:13.881Z,13.06
2018-12-18T11:19:39.821Z,13.10
2018-12-18T11:22:05.784Z,13.45
2018-12-18T11:24:31.761Z,13.40
2018-12-18T11:26:57.726Z,13.12
2018-12-18T11:29:23.702Z,13.02
2018-12-18T11:31:49.688Z,13.09
2018-12-18T11:34:15.710Z,12.96
2018-12-18T11:36:41.649Z,12.99
2018-12-18T11:39:07.589Z,13.09
2018-12-18T11:41:34.615Z,13.13
2018-12-18T11:44:00.600Z,13.05
2018-12-18T11:46:26.591Z,13.08
2018-12-18T11:48:52.536Z,13.13
2018-12-18T11:51:18.496Z,13.26
2018-12-18T11:53:44.517Z,13.06
2018-12-18T11:56:10.691Z,13.05
2018-12-18T11:58:36.788Z,13.06
2018-12-18T12:01:02.738Z,13.00
2018-12-18T12:03:28.712Z,12.96
2018-12-18T12:05:56.413Z,13.14
2018-12-18T12:08:22.383Z,13.11
2018-12-18T12:10:48.357Z,13.15
2018-12-18T12:13:14.328Z,13.21
2018-12-18T12:15:40.416Z,12.92
2018-12-18T12:18:06.390Z,13.01
2018-12-18T12:20:32.416Z,13.10
2018-12-18T12:22:58.368Z,13.03
2018-12-18T12:25:24.333Z,12.81
2018-12-18T12:27:50.273Z,12.78
2018-12-18T12:30:16.235Z,12.58
2018-12-18T12:32:42.176Z,12.89
2018-12-18T12:35:08.135Z,12.90
2018-12-18T12:37:34.103Z,12.80
2018-12-18T12:40:00.073Z,12.95
2018-12-18T12:42:26.071Z,12.33
2018-12-18T12:44:52.031Z,12.49
2018-12-18T12:47:17.977Z,12.72
2018-12-18T12:49:43.932Z,12.76
2018-12-18T12:52:09.920Z,12.82
2018-12-18T12:54:35.870Z,12.89
2018-12-18T12:57:01.831Z,12.90
2018-12-18T12:59:27.807Z,12.64
2018-12-18T13:01:53.794Z,12.74
2018-12-18T13:04:19.776Z,12.79
2018-12-18T13:06:45.745Z,12.55
2018-12-18T13:09:11.690Z,12.72
2018-12-18T13:11:37.653Z,12.82
2018-12-18T13:14:03.608Z,12.75
2018-12-18T13:16:29.582Z,12.83
2018-12-18T13:18:55.557Z,12.46
2018-12-18T13:21:21.513Z,12.61
2018-12-18T13:23:50.072Z,12.60
2018-12-18T13:26:16.050Z,12.84
2018-12-18T13:28:42.035Z,12.76
2018-12-18T13:31:08.047Z,12.69
2018-12-18T13:33:33.999Z,12.47
2018-12-18T13:35:59.962Z,12.62
2018-12-18T13:38:25.952Z,12.52
2018-12-18T13:40:51.889Z,12.64
2018-12-18T13:43:17.909Z,12.80
2018-12-18T13:45:43.905Z,12.81
2018-12-18T13:48:09.883Z,12.44
2018-12-18T13:50:35.843Z,12.51
2018-12-18T13:53:01.804Z,12.59
2018-12-18T13:55:27.991Z,12.49
2018-12-18T13:57:53.954Z,12.60
2018-12-18T14:00:19.912Z,12.63
2018-12-18T14:02:45.903Z,12.49
2018-12-18T14:05:11.918Z,12.63
2018-12-18T14:07:37.895Z,12.67
2018-12-18T14:10:03.895Z,12.68
2018-12-18T14:12:29.872Z,12.83
2018-12-18T14:14:55.832Z,12.84
2018-12-18T14:17:22.038Z,12.66
2018-12-18T14:19:47.988Z,12.49
2018-12-18T14:22:14.067Z,12.42
2018-12-18T14:24:40.129Z,12.15
2018-12-18T14:27:06.068Z,11.64
2018-12-18T14:29:32.050Z,11.81
2018-12-18T14:31:58.142Z,12.06
2018-12-18T14:34:24.134Z,11.33
2018-12-18T14:36:56.062Z,11.62
2018-12-18T14:39:19.366Z,11.95
2018-12-18T14:41:45.397Z,11.83
2018-12-18T14:44:11.358Z,10.88
2018-12-18T14:46:37.393Z,11.11
2018-12-18T14:49:03.379Z,11.63
2018-12-18T14:51:29.321Z,11.86
2018-12-18T14:53:55.314Z,11.69
2018-12-18T14:56:21.302Z,11.47
2018-12-18T14:58:47.502Z,11.88
2018-12-18T15:01:13.542Z,11.01
2018-12-18T15:03:39.523Z,11.48
2018-12-18T15:06:05.563Z,11.47
2018-12-18T15:08:31.580Z,11.60
2018-12-18T15:10:57.574Z,11.12
2018-12-18T15:13:23.572Z,11.54
2018-12-18T15:15:49.528Z,11.26
2018-12-18T15:18:15.501Z,10.88
2018-12-18T15:20:41.438Z,10.44
2018-12-18T15:23:07.436Z,10.77
2018-12-18T15:25:33.399Z,9.99
2018-12-18T15:27:59.393Z,9.75
2018-12-18T15:30:26.078Z,9.76
2018-12-18T15:32:52.280Z,10.64
2018-12-18T15:35:18.220Z,9.58
2018-12-18T15:37:44.188Z,9.27
2018-12-18T15:40:10.132Z,9.79
2018-12-18T15:42:36.180Z,9.56
2018-12-18T15:45:02.981Z,9.09
2018-12-18T15:47:28.945Z,9.52
2018-12-18T15:49:54.909Z,10.26
2018-12-18T15:52:20.876Z,10.18
2018-12-18T15:54:46.860Z,10.50
2018-12-18T15:57:12.832Z,9.98
2018-12-18T15:59:39.480Z,10.08
2018-12-18T16:02:05.440Z,10.16
2018-12-18T16:04:31.439Z,10.08
2018-12-18T16:06:57.381Z,10.16
2018-12-18T16:09:23.357Z,10.00
2018-12-18T16:11:49.878Z,10.05
2018-12-18T16:14:17.012Z,9.46
2018-12-18T16:16:42.957Z,9.28
2018-12-18T16:19:10.172Z,9.46
2018-12-18T16:21:37.061Z,9.20
2018-12-18T16:24:03.033Z,9.79
2018-12-18T16:26:29.086Z,9.89
2018-12-18T16:28:55.075Z,9.34
2018-12-18T16:31:21.154Z,9.82
2018-12-18T16:33:47.148Z,9.30
2018-12-18T16:36:13.154Z,9.29
2018-12-18T16:38:40.065Z,9.09
2018-12-18T16:41:06.035Z,9.05
2018-12-18T16:43:31.998Z,8.93
2018-12-18T16:45:57.965Z,8.73
2018-12-18T16:48:23.923Z,8.90
2018-12-18T16:50:49.954Z,8.65
2018-12-18T16:53:16.187Z,9.03
2018-12-18T16:55:42.274Z,9.77
2018-12-18T16:58:08.223Z,9.65
2018-12-18T17:00:34.177Z,9.45
2018-12-18T17:03:00.143Z,9.46
2018-12-18T17:05:26.123Z,9.55
2018-12-18T17:07:52.813Z,9.51
2018-12-18T17:10:18.818Z,9.23
2018-12-18T17:12:44.764Z,9.15
2018-12-18T17:15:11.428Z,8.94
2018-12-18T17:17:37.366Z,9.13
2018-12-18T17:20:03.324Z,8.98
2018-12-18T17:22:30.082Z,8.47
2018-12-18T17:24:56.052Z,8.45
2018-12-18T17:27:22.023Z,8.65
2018-12-18T17:29:48.029Z,8.46
2018-12-18T17:32:13.984Z,8.69
2018-12-18T17:34:39.926Z,8.48
2018-12-18T17:37:05.883Z,8.47
2018-12-18T17:39:31.827Z,8.59
2018-12-18T17:41:57.771Z,8.18
2018-12-18T17:44:23.708Z,8.19
2018-12-18T17:46:49.688Z,8.20
2018-12-18T17:49:15.637Z,8.05
2018-12-18T17:51:41.615Z,8.10
2018-12-18T17:54:07.572Z,8.00
2018-12-18T17:56:34.639Z,8.43
2018-12-18T17:59:00.595Z,8.75
2018-12-18T18:01:26.555Z,8.28
2018-12-18T18:03:53.124Z,8.22
2018-12-18T18:06:19.077Z,7.90
2018-12-18T18:08:45.040Z,7.99
2018-12-18T18:11:12.084Z,8.28
2018-12-18T18:13:38.045Z,8.12
2018-12-18T18:16:04.004Z,8.19
2018-12-18T18:18:30.089Z,8.60
2018-12-18T18:20:56.099Z,8.48
2018-12-18T18:23:22.408Z,8.71
2018-12-18T18:25:50.337Z,8.98
2018-12-18T18:28:16.409Z,9.18
2018-12-18T18:30:43.456Z,9.00
2018-12-18T18:33:11.525Z,9.14
2018-12-18T18:35:37.548Z,9.42
2018-12-18T18:38:03.529Z,9.50
2018-12-18T18:40:29.512Z,9.50
2018-12-18T18:42:55.530Z,9.12
2018-12-18T18:45:21.466Z,9.61
2018-12-18T18:47:48.150Z,9.67
2018-12-18T18:50:14.116Z,9.32
2018-12-18T18:55:16.597Z,9.47
2018-12-18T18:57:42.592Z,8.73
2018-12-18T19:00:09.578Z,9.06
2018-12-18T19:02:35.534Z,8.74
2018-12-18T19:05:01.566Z,8.39
2018-12-18T19:07:27.824Z,8.80
2018-12-18T19:09:53.914Z,8.41
2018-12-18T19:12:19.959Z,8.91
2018-12-18T19:14:45.949Z,9.08
2018-12-18T19:17:11.968Z,8.87
2018-12-18T19:19:37.929Z,8.83
2018-12-18T19:22:03.950Z,8.75
2018-12-18T19:24:29.954Z,8.70
2018-12-18T19:27:01.153Z,8.99
2018-12-18T19:29:27.173Z,9.46
2018-12-18T19:31:53.136Z,9.18
2018-12-18T19:34:21.152Z,9.00
2018-12-18T19:36:47.333Z,8.77
2018-12-18T19:39:13.586Z,8.57
2018-12-18T19:41:39.544Z,8.78
2018-12-18T19:44:05.552Z,8.98
2018-12-18T19:46:31.553Z,9.43
2018-12-18T19:48:57.553Z,9.20
2018-12-18T19:51:23.520Z,9.53
2018-12-18T19:53:49.498Z,8.85
2018-12-18T19:56:15.517Z,8.97
2018-12-18T19:58:41.513Z,9.42
2018-12-18T20:01:07.478Z,8.75
2018-12-18T20:03:33.495Z,9.01
2018-12-18T20:05:59.603Z,9.56
2018-12-18T20:08:25.608Z,8.83
2018-12-18T20:10:51.668Z,9.20
2018-12-18T20:13:17.689Z,9.39
2018-12-18T20:15:43.658Z,8.83
2018-12-18T20:18:09.636Z,8.97
2018-12-18T20:25:38.778Z,9.02
2018-12-18T20:28:04.783Z,9.27
2018-12-18T20:30:30.757Z,9.35
2018-12-18T20:32:56.725Z,8.95
2018-12-18T20:35:22.675Z,8.75
2018-12-18T20:37:48.761Z,8.48
2018-12-18T20:40:14.752Z,8.47
2018-12-18T20:42:40.859Z,8.22
2018-12-18T20:45:06.821Z,8.00
2018-12-18T20:47:32.937Z,8.41
2018-12-18T20:52:30.956Z,8.13
2018-12-18T20:54:56.924Z,8.36
2018-12-18T20:57:22.881Z,8.46
2018-12-18T20:59:48.919Z,8.41
2018-12-18T21:02:14.895Z,8.22
2018-12-18T21:04:40.884Z,8.41
2018-12-18T21:07:06.922Z,8.96
2018-12-18T21:12:09.191Z,8.95
2018-12-18T21:14:35.168Z,9.17
2018-12-18T21:17:01.176Z,9.43
2018-12-18T21:19:27.320Z,8.78
2018-12-18T21:21:53.311Z,8.60
2018-12-18T21:24:19.271Z,9.02
2018-12-18T21:26:45.292Z,9.23
2018-12-18T21:29:11.278Z,8.79
2018-12-18T21:31:37.256Z,8.41
2018-12-18T21:34:03.343Z,8.34
2018-12-18T21:36:31.389Z,8.42
2018-12-18T21:38:57.341Z,8.16
2018-12-18T21:41:23.381Z,8.29
2018-12-18T21:43:50.596Z,8.31
2018-12-18T21:46:16.708Z,8.32
2018-12-18T21:48:42.761Z,8.31
2018-12-18T21:51:08.809Z,8.39
2018-12-18T21:53:34.985Z,8.34
2018-12-18T21:56:00.976Z,8.36
2018-12-18T21:58:26.949Z,8.24
2018-12-18T22:00:55.034Z,8.46
2018-12-18T22:05:56.355Z,9.40
2018-12-18T22:08:22.331Z,9.44
2018-12-18T22:10:48.293Z,9.39
2018-12-18T22:13:14.261Z,9.29
2018-12-18T22:15:40.237Z,9.33
2018-12-18T22:18:06.240Z,9.19
2018-12-18T22:20:32.271Z,9.76
2018-12-18T22:22:58.277Z,9.58
2018-12-18T22:25:24.323Z,9.53
2018-12-18T22:27:50.349Z,9.18
2018-12-18T22:30:16.319Z,9.33
2018-12-18T22:32:42.320Z,9.47
2018-12-18T22:35:08.295Z,9.77
2018-12-18T22:37:34.262Z,9.44
2018-12-18T22:40:00.243Z,8.28
2018-12-18T22:42:26.227Z,8.62
2018-12-18T22:44:52.209Z,9.28
2018-12-18T22:47:18.157Z,9.72
2018-12-18T22:49:44.179Z,8.96
2018-12-18T22:52:10.144Z,9.31
2018-12-18T22:54:36.131Z,9.13
2018-12-18T22:57:02.104Z,9.31
2018-12-18T22:59:28.076Z,9.16
2018-12-18T23:01:54.092Z,9.72
2018-12-18T23:04:20.041Z,9.33
2018-12-18T23:06:46.025Z,9.39
2018-12-18T23:09:11.991Z,9.61
2018-12-18T23:11:37.982Z,9.26
2018-12-18T23:14:03.958Z,9.50
2018-12-18T23:16:29.971Z,8.87
2018-12-18T23:18:55.943Z,8.70
2018-12-18T23:21:21.927Z,9.34
2018-12-18T23:23:47.902Z,8.42
2018-12-18T23:26:13.888Z,8.13
2018-12-18T23:28:39.849Z,8.53
2018-12-18T23:31:05.903Z,7.55
2018-12-18T23:33:31.892Z,7.67
2018-12-18T23:35:57.941Z,8.27
2018-12-18T23:38:23.964Z,8.11
2018-12-18T23:40:49.917Z,8.04
2018-12-18T23:43:15.905Z,8.76
2018-12-18T23:45:41.861Z,9.16
2018-12-18T23:48:07.860Z,8.61
2018-12-18T23:50:33.828Z,8.52
2018-12-18T23:52:59.819Z,8.47
2018-12-18T23:55:25.876Z,8.13
2018-12-18T23:57:52.135Z,8.63
